Time;durP1;ratioP1;P1;durP2;ratioP2;P2;SDS_P1;SDS_P2;PMS_P1;PMS_P2;Temp;Humidity;BMP_temperature;BMP_pressure;BME280_temperature;BME280_humidity;BME280_pressure;Samples;Min_cycle;Max_cycle;Signal;HPM_P1;HPM_P2
2021/08/21 00:00:06;;;;;;;10.80;4.80;;;;;;;19.52;61.82;97420.41;5071853;28;20024;-72
2021/08/21 00:02:33;;;;;;;7.10;4.63;;;;;;;19.54;61.63;97415.66;5071450;28;20020;-72
2021/08/21 00:04:58;;;;;;;6.45;4.22;;;;;;;19.44;61.68;97404.88;5070296;28;20028;-71
2021/08/21 00:07:24;;;;;;;6.22;4.40;;;;;;;19.46;61.94;97410.19;5070280;28;20086;-71
2021/08/21 00:09:50;;;;;;;6.15;4.40;;;;;;;19.40;62.08;97408.94;5053341;28;20042;-71
2021/08/21 00:12:15;;;;;;;6.10;4.00;;;;;;;19.42;62.52;97419.63;5053723;28;20020;-71
2021/08/21 00:14:41;;;;;;;10.02;4.40;;;;;;;19.36;62.47;97412.06;5070118;28;20415;-72
2021/08/21 00:17:06;;;;;;;9.85;4.60;;;;;;;19.38;62.93;97431.78;5070140;28;20024;-71
2021/08/21 00:19:32;;;;;;;9.15;4.25;;;;;;;19.33;63.06;97428.63;5070231;28;20047;-72
2021/08/21 00:21:57;;;;;;;17.73;4.85;;;;;;;19.36;62.99;97429.19;5070996;28;20037;-71
2021/08/21 00:24:23;;;;;;;11.20;4.30;;;;;;;19.36;63.06;97431.91;5071151;28;20041;-72
2021/08/21 00:26:49;;;;;;;8.65;4.15;;;;;;;19.32;63.34;97426.91;5070032;28;20035;-71
2021/08/21 00:29:16;;;;;;;11.70;4.97;;;;;;;19.29;63.50;97429.94;5053347;28;20031;-71
2021/08/21 00:31:42;;;;;;;6.07;4.30;;;;;;;19.25;62.64;97432.13;5053119;28;20131;-72
2021/08/21 00:34:07;;;;;;;6.80;4.65;;;;;;;19.25;62.58;97444.81;5053396;28;20506;-72
2021/08/21 00:36:33;;;;;;;8.45;5.10;;;;;;;19.09;62.36;97447.34;5070128;28;20020;-71
2021/08/21 00:38:59;;;;;;;11.02;4.93;;;;;;;19.11;62.49;97442.59;5069714;28;20047;-71
2021/08/21 00:41:24;;;;;;;7.35;4.95;;;;;;;19.08;62.28;97445.63;5070006;28;20028;-72
2021/08/21 00:43:50;;;;;;;14.52;5.63;;;;;;;18.97;62.58;97440.41;5071015;28;20021;-72
2021/08/21 00:46:15;;;;;;;9.95;5.18;;;;;;;18.93;62.93;97446.13;5071222;28;20023;-72
2021/08/21 00:48:41;;;;;;;16.55;5.03;;;;;;;18.90;63.15;97441.00;5069979;28;20170;-72
2021/08/21 00:51:06;;;;;;;13.40;5.88;;;;;;;18.87;63.15;97437.72;5053028;28;20020;-72
2021/08/21 00:53:32;;;;;;;11.80;4.70;;;;;;;18.77;63.73;97432.34;5071421;28;20035;-71
2021/08/21 00:55:59;;;;;;;10.50;4.85;;;;;;;18.73;65.19;97436.38;5069776;28;20059;-72
2021/08/21 00:58:26;;;;;;;7.25;4.53;;;;;;;18.73;65.55;97441.78;5086753;28;20107;-71
2021/08/21 01:00:52;;;;;;;7.00;4.55;;;;;;;18.59;66.35;97436.81;5069506;28;20028;-72
2021/08/21 01:03:18;;;;;;;11.18;4.97;;;;;;;18.50;67.18;97432.28;5069727;28;20024;-72
2021/08/21 01:05:44;;;;;;;7.93;5.10;;;;;;;18.44;67.40;97432.84;5071097;28;20024;-73
2021/08/21 01:08:09;;;;;;;10.93;4.68;;;;;;;18.38;67.71;97434.28;5069802;28;20395;-73
2021/08/21 01:10:35;;;;;;;17.20;5.38;;;;;;;18.37;68.49;97431.72;5070973;28;20070;-71
2021/08/21 01:13:00;;;;;;;7.72;4.72;;;;;;;18.30;68.24;97428.72;5069603;28;20051;-72
2021/08/21 01:15:26;;;;;;;8.02;4.70;;;;;;;18.37;68.32;97445.25;5069622;28;20027;-71
2021/08/21 01:17:52;;;;;;;7.03;5.20;;;;;;;18.35;68.56;97439.13;5069560;28;20031;-72
2021/08/21 01:20:18;;;;;;;7.57;4.95;;;;;;;18.38;68.10;97428.88;5069645;28;20025;-72
2021/08/21 01:22:44;;;;;;;6.68;4.88;;;;;;;18.48;67.47;97434.28;5069383;28;20033;-72
2021/08/21 01:25:12;;;;;;;12.80;4.53;;;;;;;18.33;68.24;97438.44;5070528;28;20048;-72
2021/08/21 01:27:38;;;;;;;9.52;4.97;;;;;;;18.33;68.59;97441.97;5069794;28;20091;-72
2021/08/21 01:30:04;;;;;;;7.15;4.95;;;;;;;18.33;69.69;97441.16;5072205;28;20040;-72
2021/08/21 01:32:29;;;;;;;9.90;5.20;;;;;;;18.29;69.93;97446.00;5073322;28;20062;-73
2021/08/21 01:34:56;;;;;;;8.30;5.18;;;;;;;18.19;70.93;97449.72;5073200;28;20068;-73
2021/08/21 01:37:23;;;;;;;10.93;5.18;;;;;;;18.23;70.66;97452.00;5073380;28;20024;-72
2021/08/21 01:39:51;;;;;;;22.83;5.97;;;;;;;18.29;70.55;97450.56;5090281;28;20028;-72
2021/08/21 01:42:17;;;;;;;14.18;5.47;;;;;;;18.35;70.01;97455.38;5074308;28;20472;-72
2021/08/21 01:44:43;;;;;;;14.50;5.38;;;;;;;18.43;68.68;97456.38;5090003;28;20032;-72
2021/08/21 01:47:09;;;;;;;8.18;4.88;;;;;;;18.47;68.56;97450.66;5056138;28;20032;-72
2021/08/21 01:49:36;;;;;;;11.57;5.07;;;;;;;18.47;69.08;97451.50;5073084;28;20024;-72
2021/08/21 01:52:03;;;;;;;8.68;4.65;;;;;;;18.42;69.51;97456.53;5072731;28;20472;-72
2021/08/21 01:54:29;;;;;;;7.25;5.20;;;;;;;18.48;69.31;97461.34;5072943;28;20412;-72
2021/08/21 01:56:56;;;;;;;10.45;5.20;;;;;;;18.49;68.87;97460.38;5072811;28;20105;-72
2021/08/21 01:59:35;;;;;;;11.20;5.07;;;;;;;18.46;68.83;97452.50;5089671;28;20035;-72
2021/08/21 02:02:01;;;;;;;9.10;4.68;;;;;;;18.41;68.86;97461.09;5089485;28;20042;-72
2021/08/21 02:04:27;;;;;;;6.88;4.97;;;;;;;18.36;69.23;97454.41;5089796;28;20028;-72
2021/08/21 02:06:53;;;;;;;10.93;5.20;;;;;;;18.33;69.56;97457.41;5072808;28;20039;-72
2021/08/21 02:09:21;;;;;;;10.70;5.45;;;;;;;18.35;68.86;97444.56;5072523;28;20032;-72
2021/08/21 02:11:48;;;;;;;12.02;5.22;;;;;;;18.42;68.75;97453.81;5073778;28;20029;-72
2021/08/21 02:14:14;;;;;;;7.38;5.30;;;;;;;18.47;68.61;97456.94;5072587;28;20055;-72
2021/08/21 02:16:41;;;;;;;13.73;5.30;;;;;;;18.50;68.64;97453.09;5072617;28;20479;-73
2021/08/21 02:19:07;;;;;;;8.13;4.80;;;;;;;18.55;68.25;97456.25;5072386;28;20035;-72
2021/08/21 02:21:33;;;;;;;10.57;5.35;;;;;;;18.58;67.94;97456.78;5072761;28;20372;-72
2021/08/21 02:23:58;;;;;;;11.15;5.70;;;;;;;18.64;67.90;97458.91;5072124;28;20480;-72
2021/08/21 02:26:26;;;;;;;11.20;5.18;;;;;;;18.62;68.05;97466.34;5072191;28;20462;-72
2021/08/21 02:28:52;;;;;;;11.85;5.68;;;;;;;18.67;67.97;97465.91;5072490;28;20396;-72
2021/08/21 02:31:18;;;;;;;18.30;5.25;;;;;;;18.72;67.14;97463.59;5073364;28;20028;-72
2021/08/21 02:33:44;;;;;;;9.75;5.15;;;;;;;18.68;66.61;97456.75;5072382;28;20404;-72
2021/08/21 02:36:10;;;;;;;13.88;5.38;;;;;;;18.69;66.72;97467.47;5073245;28;20032;-72
2021/08/21 02:38:35;;;;;;;7.82;5.30;;;;;;;18.55;67.52;97462.50;5072081;28;20028;-72
2021/08/21 02:41:01;;;;;;;11.77;5.50;;;;;;;18.50;67.93;97464.81;5053804;28;20029;-73
2021/08/21 02:43:26;;;;;;;12.10;5.63;;;;;;;18.53;68.00;97472.63;5055177;28;20099;-71
2021/08/21 02:45:52;;;;;;;10.30;5.40;;;;;;;18.55;68.01;97467.91;5072053;28;20024;-72
2021/08/21 02:48:18;;;;;;;12.52;5.35;;;;;;;18.51;68.33;97474.66;5073080;28;20028;-73
2021/08/21 02:50:43;;;;;;;9.50;5.15;;;;;;;18.45;68.87;97464.38;5073365;28;20574;-72
2021/08/21 02:53:09;;;;;;;13.15;4.85;;;;;;;18.36;69.25;97470.66;5055080;28;20020;-72
2021/08/21 02:55:34;;;;;;;8.30;5.50;;;;;;;18.32;69.76;97471.94;5073014;28;20032;-72
2021/08/21 02:58:00;;;;;;;9.88;5.05;;;;;;;18.36;69.70;97474.19;5072954;28;20028;-73
2021/08/21 03:00:25;;;;;;;10.70;5.45;;;;;;;18.29;69.68;97462.25;5071446;28;20086;-72
2021/08/21 03:02:51;;;;;;;11.75;6.78;;;;;;;18.27;70.38;97468.81;5072832;28;20028;-73
2021/08/21 03:05:17;;;;;;;15.18;5.63;;;;;;;18.23;70.80;97475.50;5071563;28;20028;-72
2021/08/21 03:07:42;;;;;;;10.88;5.47;;;;;;;18.18;70.88;97466.97;5072919;28;20028;-72
2021/08/21 03:10:09;;;;;;;13.77;5.35;;;;;;;18.13;71.39;97471.94;5071334;28;20049;-72
2021/08/21 03:12:34;;;;;;;12.05;6.57;;;;;;;18.15;71.71;97476.22;5071534;28;20427;-71
2021/08/21 03:15:00;;;;;;;12.13;5.68;;;;;;;18.13;72.09;97477.34;5054667;28;20043;-72
2021/08/21 03:17:26;;;;;;;18.60;7.35;;;;;;;17.96;72.53;97478.94;5072470;28;20056;-72
2021/08/21 03:19:52;;;;;;;21.08;8.48;;;;;;;17.97;73.11;97487.91;5071413;28;20027;-72
2021/08/21 03:22:18;;;;;;;19.25;7.70;;;;;;;17.93;73.11;97484.66;5071228;28;20025;-72
2021/08/21 03:24:43;;;;;;;16.17;6.35;;;;;;;17.95;72.78;97484.50;5087884;28;20044;-72
2021/08/21 03:27:09;;;;;;;22.73;6.90;;;;;;;17.98;72.99;97495.03;5054327;28;20510;-72
2021/08/21 03:29:35;;;;;;;22.58;6.70;;;;;;;17.95;72.84;97488.06;5054363;28;20136;-72
2021/08/21 03:32:00;;;;;;;17.52;6.85;;;;;;;18.04;71.98;97500.72;5072287;28;20024;-72
2021/08/21 03:34:26;;;;;;;28.23;8.90;;;;;;;17.94;71.92;97494.44;5070916;28;20035;-71
2021/08/21 03:36:52;;;;;;;16.33;8.65;;;;;;;17.97;72.13;97498.72;5070918;28;20016;-72
2021/08/21 03:39:18;;;;;;;15.27;6.50;;;;;;;17.87;73.21;97496.88;5070678;28;20028;-71
2021/08/21 03:41:44;;;;;;;14.15;6.57;;;;;;;17.69;72.61;97495.00;5070871;28;20403;-72
2021/08/21 03:44:09;;;;;;;9.43;6.10;;;;;;;17.58;73.46;97485.16;5070645;28;20024;-72
2021/08/21 03:46:35;;;;;;;11.82;5.53;;;;;;;17.57;73.80;97490.69;5070881;28;20052;-71
2021/08/21 03:49:00;;;;;;;9.60;5.75;;;;;;;17.58;74.83;97501.41;5070878;28;20043;-72
2021/08/21 03:51:26;;;;;;;11.70;5.90;;;;;;;17.63;75.31;97503.66;5070122;28;20024;-72
2021/08/21 03:53:51;;;;;;;12.45;5.93;;;;;;;17.67;75.30;97508.69;5053924;28;20214;-72
2021/08/21 03:56:17;;;;;;;11.90;6.07;;;;;;;17.70;74.80;97512.94;5053731;28;20070;-73
2021/08/21 03:58:42;;;;;;;11.85;5.80;;;;;;;17.66;74.29;97501.53;5070522;28;20032;-72
2021/08/21 04:01:08;;;;;;;14.63;6.25;;;;;;;17.63;73.72;97515.34;5071677;28;20024;-72
2021/08/21 04:03:35;;;;;;;13.07;6.35;;;;;;;17.64;73.17;97510.81;5070292;28;20396;-71
2021/08/21 04:06:00;;;;;;;12.63;6.25;;;;;;;17.62;72.52;97510.97;5070490;28;20074;-72
2021/08/21 04:08:26;;;;;;;24.70;6.90;;;;;;;17.68;72.15;97518.50;5070063;28;20032;-71
2021/08/21 04:10:51;;;;;;;15.38;6.65;;;;;;;17.73;71.90;97518.94;5070549;28;20028;-71
2021/08/21 04:13:17;;;;;;;18.70;7.45;;;;;;;17.71;71.71;97526.34;5071382;28;20023;-71
2021/08/21 04:15:43;;;;;;;17.30;7.63;;;;;;;17.76;71.61;97515.94;5071647;28;20111;-71
2021/08/21 04:18:08;;;;;;;18.92;7.75;;;;;;;17.77;71.22;97519.50;5071520;28;20024;-72
2021/08/21 04:20:34;;;;;;;18.88;7.32;;;;;;;17.75;70.86;97516.06;5070213;28;20039;-71
2021/08/21 04:22:59;;;;;;;25.42;7.53;;;;;;;17.92;70.74;97528.06;5070216;28;20025;-72
2021/08/21 04:25:25;;;;;;;20.98;7.38;;;;;;;18.02;70.25;97528.94;5086685;28;20049;-72
2021/08/21 04:27:52;;;;;;;13.95;7.10;;;;;;;18.04;69.83;97527.81;5071518;28;20031;-72
2021/08/21 04:30:18;;;;;;;19.10;8.45;;;;;;;18.04;69.53;97526.94;5071079;28;20029;-71
2021/08/21 04:32:43;;;;;;;20.98;9.30;;;;;;;18.17;68.74;97531.09;5070128;28;20020;-71
2021/08/21 04:35:10;;;;;;;22.52;8.43;;;;;;;18.18;69.08;97523.84;5071351;28;20024;-71
2021/08/21 04:37:36;;;;;;;21.67;7.72;;;;;;;18.11;69.74;97533.50;5069684;28;20427;-71
2021/08/21 04:40:03;;;;;;;13.82;8.25;;;;;;;18.14;69.65;97523.25;5069828;28;20024;-71
2021/08/21 04:42:29;;;;;;;22.95;8.48;;;;;;;18.12;69.49;97533.34;5069606;28;20550;-72
2021/08/21 04:44:59;;;;;;;23.92;8.93;;;;;;;17.92;70.56;97545.19;5070032;28;20028;-72
2021/08/21 04:47:26;;;;;;;20.08;9.07;;;;;;;17.97;69.76;97542.88;5071066;28;20100;-72
2021/08/21 04:49:51;;;;;;;21.05;9.40;;;;;;;18.06;69.38;97541.19;5070096;28;20055;-72
2021/08/21 04:52:17;;;;;;;17.85;8.50;;;;;;;18.16;68.88;97536.63;5053018;28;20044;-72
2021/08/21 04:54:42;;;;;;;21.15;8.95;;;;;;;18.26;68.50;97538.38;5069872;28;20480;-75
2021/08/21 04:57:08;;;;;;;17.80;9.07;;;;;;;18.43;68.26;97545.75;5069953;28;20020;-75
2021/08/21 04:59:33;;;;;;;16.88;8.05;;;;;;;18.53;67.63;97548.50;5052809;28;20032;-76
2021/08/21 05:01:59;;;;;;;21.95;8.57;;;;;;;18.59;67.73;97544.34;5053071;28;20032;-72
2021/08/21 05:04:25;;;;;;;18.85;8.93;;;;;;;18.60;67.55;97544.22;5073088;28;20020;-73
2021/08/21 05:06:50;;;;;;;18.08;8.90;;;;;;;18.71;67.10;97551.31;5073755;28;20032;-71
2021/08/21 05:09:16;;;;;;;23.83;9.07;;;;;;;18.83;66.75;97553.72;5075176;28;20028;-75
2021/08/21 05:11:41;;;;;;;22.00;8.98;;;;;;;18.76;66.77;97552.63;5073940;28;20024;-73
2021/08/21 05:14:10;;;;;;;15.07;8.32;;;;;;;18.99;66.26;97557.66;5071066;28;20111;-72
2021/08/21 05:16:36;;;;;;;11.38;8.02;;;;;;;19.17;65.87;97556.75;5071411;28;20024;-72
2021/08/21 05:19:11;;;;;;;15.10;9.02;;;;;;;19.45;64.31;97555.81;5054385;28;20032;-82
2021/08/21 05:21:47;;;;;;;13.30;8.90;;;;;;;19.67;63.51;97564.56;5056364;28;20115;-75
2021/08/21 05:24:12;;;;;;;18.35;8.52;;;;;;;19.87;62.85;97571.63;5071890;28;20544;-75
2021/08/21 05:26:39;;;;;;;16.55;7.82;;;;;;;20.14;61.88;97573.44;5071785;28;20429;-78
2021/08/21 05:29:04;;;;;;;16.65;9.13;;;;;;;20.34;60.92;97566.88;5054132;28;20476;-72
2021/08/21 05:31:30;;;;;;;18.98;9.23;;;;;;;20.60;60.09;97569.69;5053993;28;20032;-72
2021/08/21 05:33:55;;;;;;;17.88;8.55;;;;;;;20.81;59.71;97568.31;5070867;28;20056;-73
2021/08/21 05:36:21;;;;;;;18.00;9.13;;;;;;;21.12;57.98;97573.34;5071674;28;20024;-72
2021/08/21 05:38:47;;;;;;;17.08;9.52;;;;;;;22.75;52.44;97565.63;5053789;28;20550;-73
2021/08/21 05:41:12;;;;;;;21.60;9.18;;;;;;;23.94;48.84;97570.16;5070382;28;20032;-72
2021/08/21 05:43:38;;;;;;;16.45;9.52;;;;;;;25.30;45.71;97562.91;5071500;28;20029;-72
2021/08/21 05:46:03;;;;;;;15.60;8.60;;;;;;;27.59;40.90;97563.94;5071734;28;20029;-73
2021/08/21 05:48:29;;;;;;;20.80;11.43;;;;;;;28.85;37.71;97564.31;5070296;28;20070;-73
2021/08/21 05:50:55;;;;;;;30.42;12.55;;;;;;;29.73;36.14;97556.66;5071494;28;20036;-72
2021/08/21 05:53:20;;;;;;;26.38;9.60;;;;;;;30.79;33.93;97558.00;5053332;28;20089;-72
2021/08/21 05:55:46;;;;;;;22.50;8.88;;;;;;;31.06;33.20;97554.00;5071655;28;20442;-72
2021/08/21 05:58:11;;;;;;;24.88;9.50;;;;;;;31.12;33.27;97569.69;5053831;28;20483;-72
2021/08/21 06:00:37;;;;;;;15.23;8.57;;;;;;;31.02;33.07;97572.94;5053567;28;20487;-73
2021/08/21 06:03:03;;;;;;;21.60;9.07;;;;;;;31.29;32.78;97568.06;5069990;28;20032;-73
2021/08/21 06:05:28;;;;;;;29.98;11.52;;;;;;;32.29;31.19;97560.50;5069876;28;20024;-73
2021/08/21 06:07:54;;;;;;;21.55;10.70;;;;;;;33.16;29.74;97559.97;5070074;28;20427;-73
2021/08/21 06:10:19;;;;;;;16.85;9.50;;;;;;;34.25;28.30;97560.16;5069791;28;20027;-72
2021/08/21 06:12:47;;;;;;;13.90;7.85;;;;;;;33.81;27.97;97546.88;5071015;28;21001;-75
2021/08/21 06:15:13;;;;;;;15.25;7.95;;;;;;;34.34;27.96;97555.06;5069314;28;20030;-72
2021/08/21 06:17:38;;;;;;;14.73;7.00;;;;;;;33.68;27.88;97550.78;5052835;28;20032;-72
2021/08/21 06:20:04;;;;;;;12.75;7.25;;;;;;;33.25;28.85;97561.31;5053240;28;20103;-73
2021/08/21 06:22:30;;;;;;;15.30;7.70;;;;;;;34.06;27.89;97569.69;5069469;28;20094;-73
2021/08/21 06:24:56;;;;;;;15.20;7.10;;;;;;;35.58;26.50;97564.47;5071004;28;20048;-73
2021/08/21 06:27:21;;;;;;;15.07;7.13;;;;;;;35.94;25.50;97549.13;5069770;28;20444;-73
2021/08/21 06:29:47;;;;;;;8.95;6.30;;;;;;;36.15;25.03;97554.78;5069528;28;20618;-73
2021/08/21 06:32:12;;;;;;;14.40;6.72;;;;;;;36.78;24.43;97565.38;5052783;28;20417;-73
2021/08/21 06:34:38;;;;;;;14.07;6.65;;;;;;;37.32;23.75;97554.25;5069270;28;20039;-74
2021/08/21 06:37:05;;;;;;;11.70;6.40;;;;;;;37.47;23.39;97558.03;5070902;28;20048;-74
2021/08/21 06:39:31;;;;;;;9.18;5.63;;;;;;;37.49;23.53;97555.00;5069803;28;20059;-74
2021/08/21 06:41:57;;;;;;;17.75;6.35;;;;;;;37.70;23.18;97556.00;5069187;28;20090;-74
2021/08/21 06:44:23;;;;;;;11.80;6.38;;;;;;;38.47;22.43;97547.88;5070682;28;20028;-74
2021/08/21 06:46:48;;;;;;;11.70;6.20;;;;;;;37.65;22.96;97555.97;5069179;28;20040;-74
2021/08/21 06:49:14;;;;;;;8.32;6.90;;;;;;;36.27;24.70;97547.13;5068733;28;20058;-74
2021/08/21 06:51:42;;;;;;;15.73;6.65;;;;;;;36.11;24.63;97552.78;5052710;28;20530;-74
2021/08/21 06:54:07;;;;;;;15.05;6.15;;;;;;;36.98;24.08;97570.34;5069560;28;20044;-72
2021/08/21 06:56:33;;;;;;;9.02;6.50;;;;;;;37.90;22.65;97568.19;5052896;28;20688;-73
2021/08/21 06:58:58;;;;;;;9.88;5.72;;;;;;;38.06;22.28;97554.31;5080162;28;20024;-73
2021/08/21 07:01:37;;;;;;;;;;;;;;;;;;;;;
2021/08/21 07:04:03;;;;;;;13.45;5.53;;;;;;;37.67;22.99;97554.59;5069877;28;20024;-73
2021/08/21 07:06:29;;;;;;;10.57;5.70;;;;;;;37.37;23.05;97559.88;5053338;28;20111;-74
2021/08/21 07:08:57;;;;;;;13.75;4.95;;;;;;;36.38;23.60;97554.53;5052635;28;20097;-74
2021/08/21 07:11:23;;;;;;;12.77;5.65;;;;;;;37.22;23.36;97563.38;5052436;28;20037;-73
2021/08/21 07:13:49;;;;;;;10.15;5.75;;;;;;;39.29;21.36;97558.22;5052888;28;20024;-74
2021/08/21 07:16:14;;;;;;;14.88;5.63;;;;;;;39.90;20.21;97550.72;5069351;28;20492;-73
2021/08/21 07:18:40;;;;;;;13.20;6.03;;;;;;;39.04;21.47;97550.59;5069221;28;20043;-73
2021/08/21 07:21:10;;;;;;;15.63;5.47;;;;;;;39.37;21.14;97557.69;5068740;28;20030;-73
2021/08/21 07:23:36;;;;;;;12.02;5.30;;;;;;;40.84;19.58;97569.53;5069271;28;20044;-74
2021/08/21 07:26:02;;;;;;;12.13;5.35;;;;;;;40.78;19.62;97559.47;5085055;28;20519;-74
2021/08/21 07:28:27;;;;;;;5.35;3.83;;;;;;;39.64;19.99;97549.84;5068897;28;20024;-74
2021/08/21 07:30:53;;;;;;;8.30;4.35;;;;;;;39.11;20.25;97561.53;5085515;28;20519;-73
2021/08/21 07:33:18;;;;;;;7.10;5.18;;;;;;;36.37;23.22;97557.56;5068743;28;20074;-73
2021/08/21 07:35:44;;;;;;;10.55;5.00;;;;;;;36.91;22.87;97565.00;5068776;28;20035;-73
2021/08/21 07:38:10;;;;;;;10.50;4.95;;;;;;;37.45;22.01;97562.22;5068331;28;20024;-73
2021/08/21 07:40:35;;;;;;;9.05;4.75;;;;;;;37.40;22.07;97559.34;5052243;28;20032;-73
2021/08/21 07:43:01;;;;;;;6.75;4.22;;;;;;;37.39;22.22;97557.66;5068431;28;20033;-74
2021/08/21 07:45:27;;;;;;;7.97;4.50;;;;;;;38.49;21.26;97556.81;5068345;28;20025;-73
2021/08/21 07:47:53;;;;;;;8.77;4.45;;;;;;;39.48;19.99;97559.38;5076964;28;20043;-73
2021/08/21 07:50:19;;;;;;;8.93;4.35;;;;;;;38.74;20.26;97547.69;5068297;28;20020;-73
2021/08/21 07:52:46;;;;;;;8.93;4.78;;;;;;;40.00;19.15;97551.53;5052044;28;20028;-74
2021/08/21 07:55:12;;;;;;;10.25;4.65;;;;;;;39.40;19.79;97552.38;5068248;28;20059;-74
2021/08/21 07:57:38;;;;;;;12.38;5.00;;;;;;;38.27;20.77;97556.94;5068681;28;20483;-74
2021/08/21 08:00:05;;;;;;;8.80;4.65;;;;;;;38.17;20.83;97559.72;5070043;28;20024;-73
2021/08/21 08:02:30;;;;;;;11.15;4.28;;;;;;;39.19;19.97;97553.44;5069228;28;20051;-72
2021/08/21 08:04:56;;;;;;;7.15;4.22;;;;;;;39.49;19.80;97558.25;5069466;28;20032;-73
2021/08/21 08:07:21;;;;;;;5.90;4.25;;;;;;;39.97;18.76;97556.84;5066578;28;20033;-73
2021/08/21 08:09:47;;;;;;;6.43;3.97;;;;;;;40.90;18.00;97551.53;5068412;28;20461;-74
2021/08/21 08:12:13;;;;;;;4.60;3.67;;;;;;;41.72;17.45;97550.72;5067685;28;20017;-72
2021/08/21 08:14:38;;;;;;;15.40;4.38;;;;;;;42.08;17.40;97540.84;5067463;28;20113;-73
2021/08/21 08:17:04;;;;;;;9.32;4.00;;;;;;;41.87;17.22;97544.97;5051556;28;20055;-73
2021/08/21 08:19:29;;;;;;;9.60;4.15;;;;;;;43.11;16.66;97539.34;5069280;28;20688;-72
2021/08/21 08:21:55;;;;;;;5.97;3.63;;;;;;;43.79;16.05;97539.72;5067792;28;20055;-72
2021/08/21 08:24:20;;;;;;;4.75;3.97;;;;;;;40.89;17.89;97533.84;5067726;28;20060;-72
2021/08/21 08:26:46;;;;;;;6.97;4.75;;;;;;;40.36;18.54;97527.03;5067727;28;20420;-71
2021/08/21 08:29:12;;;;;;;16.27;5.85;;;;;;;42.02;17.74;97541.19;5076320;28;20059;-72
2021/08/21 08:31:37;;;;;;;9.32;3.85;;;;;;;41.82;17.27;97544.19;5069287;28;20024;-72
2021/08/21 08:34:03;;;;;;;5.40;3.90;;;;;;;40.31;18.49;97531.84;5067738;28;20419;-72
2021/08/21 08:36:29;;;;;;;107.40;10.05;;;;;;;41.34;18.09;97540.34;5051232;28;20028;-72
2021/08/21 08:38:55;;;;;;;9.27;4.35;;;;;;;40.97;18.10;97544.53;5067488;28;20032;-72
2021/08/21 08:41:22;;;;;;;11.20;4.15;;;;;;;41.69;17.79;97542.88;5051406;28;20028;-72
2021/08/21 08:43:48;;;;;;;8.13;4.10;;;;;;;41.24;17.77;97535.63;5067394;28;20045;-72
2021/08/21 08:46:17;;;;;;;10.90;4.10;;;;;;;41.40;17.65;97542.00;5069002;28;20077;-72
2021/08/21 08:48:42;;;;;;;5.80;3.58;;;;;;;41.95;17.37;97533.13;5067699;28;20503;-72
2021/08/21 08:51:08;;;;;;;12.27;4.07;;;;;;;42.00;17.63;97533.03;5067734;28;20059;-72
2021/08/21 08:53:34;;;;;;;10.80;3.67;;;;;;;41.74;17.22;97533.56;5067671;28;20446;-72
2021/08/21 08:56:00;;;;;;;11.73;4.32;;;;;;;40.48;18.84;97526.75;5067452;28;20028;-71
2021/08/21 08:58:26;;;;;;;16.17;4.45;;;;;;;38.81;20.15;97532.38;5050776;28;20032;-72
2021/08/21 09:00:51;;;;;;;10.30;4.18;;;;;;;39.84;19.26;97530.22;5068825;28;20093;-72
2021/08/21 09:03:19;;;;;;;20.40;4.53;;;;;;;41.02;18.49;97538.88;5068845;28;20089;-72
2021/08/21 09:05:45;;;;;;;21.25;4.45;;;;;;;40.41;18.27;97531.81;5067274;28;20500;-72
2021/08/21 09:08:26;;;;;;;30.65;5.80;;;;;;;40.70;18.04;97537.63;5067451;28;20039;-72
2021/08/21 09:10:52;;;;;;;;;;;;;;;41.05;17.96;97541.09;5067690;28;20028;-72
2021/08/21 09:13:19;;;;;;;9.43;4.35;;;;;;;39.04;19.32;97520.66;5049433;28;19912;-72
2021/08/21 09:15:45;;;;;;;12.80;3.45;;;;;;;37.82;20.40;97526.75;5070683;28;20032;-71
2021/08/21 09:18:16;;;;;;;7.10;4.10;;;;;;;37.92;20.44;97532.44;5051849;28;20028;-71
2021/08/21 09:20:48;;;;;;;13.03;3.70;;;;;;;39.21;19.17;97530.75;5053068;28;20028;-71
2021/08/21 09:23:31;;;;;;;11.80;3.65;;;;;;;39.51;18.87;97533.59;5062910;28;20024;-71
2021/08/21 09:26:09;;;;;;;12.40;3.60;;;;;;;40.34;18.08;97528.47;5070850;28;20040;-71
2021/08/21 09:28:36;;;;;;;5.15;3.67;;;;;;;41.81;16.82;97540.53;5069888;28;20067;-72
2021/08/21 09:31:11;;;;;;;5.57;4.40;;;;;;;43.29;15.93;97529.22;5069494;28;20043;-73
2021/08/21 09:33:50;;;;;;;9.05;3.90;;;;;;;43.44;15.89;97523.38;5070648;28;20033;-72
2021/08/21 09:36:29;;;;;;;9.93;3.05;;;;;;;39.89;17.92;97507.81;5070702;28;20024;-72
2021/08/21 09:38:55;;;;;;;5.95;4.13;;;;;;;39.55;19.37;97517.91;5086157;28;20115;-72
2021/08/21 09:41:20;;;;;;;7.43;3.85;;;;;;;41.63;17.34;97524.38;5069563;28;20028;-71
2021/08/21 09:43:46;;;;;;;4.90;3.55;;;;;;;43.07;15.96;97522.22;5069531;28;20063;-71
2021/08/21 09:46:12;;;;;;;5.78;3.63;;;;;;;43.05;16.20;97520.84;5052382;28;20115;-72
2021/08/21 09:48:57;;;;;;;3.50;3.17;;;;;;;40.05;17.97;97506.66;5070740;28;20095;-71
2021/08/21 09:51:43;;;;;;;14.50;3.53;;;;;;;40.91;17.99;97509.16;5072852;28;20107;-73
2021/08/21 09:54:15;;;;;;;6.43;3.67;;;;;;;39.30;19.12;97501.09;5072927;28;20032;-73
2021/08/21 09:56:42;;;;;;;5.72;4.15;;;;;;;41.13;17.98;97514.38;5073054;28;20037;-72
2021/08/21 09:59:08;;;;;;;7.97;4.13;;;;;;;41.05;17.62;97513.00;5072796;28;20059;-72
2021/08/21 10:01:35;;;;;;;17.80;4.63;;;;;;;42.36;16.75;97518.63;5072770;28;20067;-73
2021/08/21 10:04:01;;;;;;;7.72;3.53;;;;;;;42.77;16.10;97510.50;5072558;28;20480;-72
2021/08/21 10:06:27;;;;;;;8.02;4.32;;;;;;;44.55;15.12;97508.06;5072852;28;20032;-73
2021/08/21 10:08:56;;;;;;;14.63;10.10;;;;;;;45.20;14.63;97517.09;5055785;28;20472;-73
2021/08/21 10:11:22;;;;;;;8.93;3.78;;;;;;;43.55;15.49;97496.69;5089512;28;20032;-73
2021/08/21 10:13:48;;;;;;;6.70;4.10;;;;;;;43.37;15.66;97511.66;5072827;28;20028;-73
2021/08/21 10:16:14;;;;;;;27.42;4.28;;;;;;;42.04;16.78;97500.38;5089404;28;20047;-73
2021/08/21 10:18:41;;;;;;;5.47;3.40;;;;;;;42.13;17.01;97501.41;5072535;28;20109;-74
2021/08/21 10:21:08;;;;;;;6.75;4.22;;;;;;;41.70;17.11;97504.38;5072298;28;20064;-73
2021/08/21 10:23:34;;;;;;;3.67;3.38;;;;;;;42.88;15.89;97503.63;5072282;28;20040;-73
2021/08/21 10:26:01;;;;;;;6.28;3.25;;;;;;;42.15;16.34;97501.09;5055597;28;20034;-72
2021/08/21 10:28:31;;;;;;;6.38;4.63;;;;;;;41.17;17.46;97500.56;5081868;28;20476;-72
2021/08/21 10:30:56;;;;;;;3.80;3.43;;;;;;;42.38;16.25;97491.03;5072289;28;20059;-72
2021/08/21 10:33:22;;;;;;;5.18;3.70;;;;;;;42.63;16.29;97488.75;5055586;28;20104;-72
2021/08/21 10:35:54;;;;;;;5.85;3.78;;;;;;;41.77;16.82;97480.44;5072383;28;20036;-72
2021/08/21 10:38:29;;;;;;;6.18;3.92;;;;;;;41.31;17.48;97490.34;5055398;28;20523;-72
2021/08/21 10:40:59;;;;;;;9.55;4.13;;;;;;;39.40;18.66;97476.75;5073501;28;20378;-72
2021/08/21 10:43:47;;;;;;;14.48;3.90;;;;;;;40.10;18.42;97480.59;5055356;28;20478;-72
2021/08/21 10:46:33;;;;;;;5.95;3.50;;;;;;;40.93;17.78;97487.25;5073271;28;20036;-72
2021/08/21 10:49:00;;;;;;;8.63;3.85;;;;;;;40.54;18.21;97497.56;5073171;28;20522;-72
2021/08/21 10:51:36;;;;;;;12.40;3.83;;;;;;;40.92;17.45;97485.53;5072013;28;20071;-72
2021/08/21 10:54:31;;;;;;;5.18;3.80;;;;;;;40.49;17.49;97473.13;5071692;28;20086;-73
2021/08/21 10:56:59;;;;;;;4.55;3.40;;;;;;;40.59;17.84;97489.13;5055536;28;20040;-72
2021/08/21 10:59:45;;;;;;;4.90;4.13;;;;;;;41.51;17.25;97491.03;5071705;28;20068;-73
2021/08/21 11:02:26;;;;;;;7.22;4.13;;;;;;;42.80;16.15;97476.97;5070390;28;20032;-73
2021/08/21 11:04:52;;;;;;;9.30;3.92;;;;;;;43.95;15.40;97479.06;5071579;28;20033;-73
2021/08/21 11:07:33;;;;;;;4.13;3.33;;;;;;;44.57;15.13;97480.38;5088433;28;20397;-73
2021/08/21 11:10:17;;;;;;;9.27;3.50;;;;;;;43.73;15.43;97467.59;5072881;28;20025;-73
2021/08/21 11:12:47;;;;;;;7.95;3.78;;;;;;;40.87;17.69;97476.31;5048930;28;20041;-72
2021/08/21 11:15:18;;;;;;;6.72;3.83;;;;;;;38.04;19.75;97456.78;5087875;28;20032;-72
2021/08/21 11:17:43;;;;;;;8.77;3.70;;;;;;;37.63;20.07;97455.69;5071533;28;20123;-72
2021/08/21 11:20:41;;;;;;;7.47;4.05;;;;;;;38.15;19.68;97469.69;5071537;28;20346;-72
2021/08/21 11:23:07;;;;;;;5.85;4.03;;;;;;;38.66;19.32;97459.56;5028042;28;20063;-72
2021/08/21 11:25:33;;;;;;;4.75;3.42;;;;;;;40.43;17.80;97462.22;5071086;28;20139;-72
2021/08/21 11:28:06;;;;;;;4.47;3.80;;;;;;;41.88;16.43;97447.41;5072786;28;20032;-73